Industry, Kansas
Current Conditions -  °F | °C
As of 6:58 PM on Sunday 23 Nov 2014 (Local Time) from KFRI Reporting Station
Scattered Clouds Scattered Clouds  
Wind Chill: 38°   Ceiling: Unl
Heat Index: 44°   Visibility: 10mi
Dew Point: 36°   Wind: 9mph
Humidity: 74%   Direction: 330°NNW
Pressure: 29.59"   Gusts: NA
Location:  39.0421°N, 97.1702°W
Report Text: KFRI 240058Z AUTO 33008KT 10SM SCT110 06/02 A2959 RMK AO2 SLP019 T00640020
Loading
Personal Weather Stations






























Interactive Weather Map New forecast layout! Learn more

10-Day Weather Forecast

Advertisements
Track Severe Weather on mobile